Time;durP1;ratioP1;P1;durP2;ratioP2;P2;SDS_P1;SDS_P2;PMS_P1;PMS_P2;Temp;Humidity;BMP_temperature;BMP_pressure;BME280_temperature;BME280_humidity;BME280_pressure;Samples;Min_cycle;Max_cycle;Signal;HPM_P1;HPM_P2
2021/07/10 00:00:37;;;;;;;51.80;28.42;;;16.40;99.90;;;;;;5034172;28;20120;-70
2021/07/10 00:03:06;;;;;;;47.35;27.80;;;16.40;99.90;;;;;;5033728;28;20028;-70
2021/07/10 00:05:32;;;;;;;44.47;27.63;;;16.40;99.90;;;;;;5033370;28;20057;-71
2021/07/10 00:07:57;;;;;;;35.92;24.88;;;16.40;99.90;;;;;;5033777;28;20029;-70
2021/07/10 00:10:23;;;;;;;38.00;24.73;;;16.40;99.90;;;;;;5034133;28;20495;-70
2021/07/10 00:12:49;;;;;;;42.70;26.20;;;16.40;99.90;;;;;;5033203;28;20022;-71
2021/07/10 00:15:17;;;;;;;45.25;28.45;;;16.40;99.90;;;;;;5034092;28;20037;-70
2021/07/10 00:17:43;;;;;;;43.50;25.92;;;16.40;99.90;;;;;;5033580;28;20426;-70
2021/07/10 00:20:11;;;;;;;49.13;28.20;;;16.40;99.90;;;;;;5033066;28;20068;-70
2021/07/10 00:22:37;;;;;;;41.15;25.58;;;16.30;99.90;;;;;;5020402;28;20473;-70
2021/07/10 00:25:11;;;;;;;46.42;27.55;;;16.30;99.90;;;;;;5033744;28;20120;-70
2021/07/10 00:27:38;;;;;;;46.45;27.20;;;16.20;99.90;;;;;;5033229;28;20029;-70
2021/07/10 00:30:05;;;;;;;45.15;27.50;;;16.20;99.90;;;;;;5033603;28;20088;-70
2021/07/10 00:32:31;;;;;;;39.97;27.40;;;16.20;99.90;;;;;;5033346;28;20456;-71
2021/07/10 00:34:57;;;;;;;39.28;24.80;;;16.20;99.90;;;;;;5032811;28;20033;-70
2021/07/10 00:37:22;;;;;;;42.67;26.70;;;16.20;99.90;;;;;;5033372;28;20037;-71
2021/07/10 00:39:48;;;;;;;41.53;26.20;;;16.20;99.90;;;;;;5033228;28;20021;-71
2021/07/10 00:42:17;;;;;;;46.67;28.63;;;16.20;99.90;;;;;;5032767;28;20022;-71
2021/07/10 00:44:43;;;;;;;46.45;27.05;;;16.20;99.90;;;;;;5019591;28;20032;-71
2021/07/10 00:47:08;;;;;;;45.80;27.58;;;16.20;99.90;;;;;;5033450;28;20029;-71
2021/07/10 00:49:34;;;;;;;51.63;28.88;;;16.20;99.90;;;;;;5033426;28;20086;-70
2021/07/10 00:51:59;;;;;;;52.28;28.67;;;16.10;99.90;;;;;;5033515;28;20108;-71
2021/07/10 00:54:25;;;;;;;45.30;27.83;;;16.10;99.90;;;;;;5032487;28;20062;-71
2021/07/10 00:56:58;;;;;;;51.75;28.63;;;16.10;99.90;;;;;;5033075;28;20546;-71
2021/07/10 00:59:25;;;;;;;47.83;28.25;;;16.10;99.90;;;;;;5032933;28;20138;-70
2021/07/10 01:01:54;;;;;;;45.35;28.33;;;16.10;99.90;;;;;;5032224;28;20026;-70
2021/07/10 01:04:20;;;;;;;46.85;25.58;;;16.00;99.90;;;;;;5032973;28;20030;-70
2021/07/10 01:06:47;;;;;;;38.53;25.33;;;16.00;99.90;;;;;;5033437;28;20014;-72
2021/07/10 01:09:13;;;;;;;47.92;28.00;;;16.00;99.90;;;;;;5032493;28;20037;-71
2021/07/10 01:11:39;;;;;;;45.40;28.00;;;16.00;99.90;;;;;;5033236;28;20100;-70
2021/07/10 01:14:05;;;;;;;47.67;27.63;;;16.00;99.90;;;;;;5032281;28;20160;-71
2021/07/10 01:16:31;;;;;;;50.45;28.30;;;16.00;99.90;;;;;;5032271;28;20029;-70
2021/07/10 01:18:56;;;;;;;45.42;27.40;;;15.90;99.90;;;;;;5032452;28;20029;-71
2021/07/10 01:21:22;;;;;;;44.97;27.00;;;15.90;99.90;;;;;;5033569;28;20473;-71
2021/07/10 01:23:48;;;;;;;39.40;25.15;;;15.90;99.90;;;;;;5031486;28;20480;-71
2021/07/10 01:26:14;;;;;;;30.10;21.88;;;15.80;99.90;;;;;;5032646;28;20080;-70
2021/07/10 01:28:40;;;;;;;33.05;22.58;;;15.80;99.90;;;;;;5032484;28;20064;-71
2021/07/10 01:31:06;;;;;;;35.60;22.05;;;15.80;99.90;;;;;;5031805;28;20425;-70
2021/07/10 01:33:32;;;;;;;25.58;18.30;;;15.80;99.90;;;;;;5032691;28;20473;-70
2021/07/10 01:35:57;;;;;;;22.45;16.40;;;15.70;99.90;;;;;;5032433;28;20056;-71
2021/07/10 01:38:23;;;;;;;28.60;18.75;;;15.70;99.90;;;;;;5031910;28;20029;-70
2021/07/10 01:40:48;;;;;;;28.45;19.23;;;15.70;99.90;;;;;;5032068;28;20133;-70
2021/07/10 01:43:14;;;;;;;22.73;16.95;;;15.60;99.90;;;;;;5032607;28;20075;-70
2021/07/10 01:45:40;;;;;;;32.67;20.17;;;15.60;99.90;;;;;;5031866;28;20022;-71
2021/07/10 01:48:10;;;;;;;35.85;21.15;;;15.60;99.90;;;;;;5018060;28;20037;-71
2021/07/10 01:50:37;;;;;;;38.38;22.02;;;15.60;99.90;;;;;;5031693;28;20528;-71
2021/07/10 01:53:03;;;;;;;32.78;20.75;;;15.60;99.90;;;;;;5032147;28;20029;-70
2021/07/10 01:55:28;;;;;;;36.08;21.73;;;15.60;99.90;;;;;;5032106;28;20037;-70
2021/07/10 01:57:54;;;;;;;38.95;22.33;;;15.60;99.90;;;;;;5031115;28;20513;-72
2021/07/10 02:00:22;;;;;;;37.63;21.92;;;15.60;99.90;;;;;;5032145;28;20060;-71
2021/07/10 02:02:49;;;;;;;32.97;21.02;;;15.60;99.90;;;;;;5031880;28;20021;-71
2021/07/10 02:05:18;;;;;;;40.47;23.17;;;15.60;99.90;;;;;;5031515;28;20029;-70
2021/07/10 02:07:44;;;;;;;33.35;22.42;;;15.60;99.90;;;;;;5014254;28;20158;-70
2021/07/10 02:10:12;;;;;;;37.65;22.90;;;15.60;99.90;;;;;;5031973;28;20496;-71
2021/07/10 02:12:39;;;;;;;38.00;22.52;;;15.60;99.90;;;;;;5031311;28;20435;-71
2021/07/10 02:15:06;;;;;;;42.85;25.23;;;15.60;99.90;;;;;;5031598;28;20030;-70
2021/07/10 02:17:32;;;;;;;38.75;23.35;;;15.50;99.90;;;;;;5032378;28;20025;-70
2021/07/10 02:19:58;;;;;;;35.72;21.75;;;15.50;99.90;;;;;;5031139;28;20031;-70
2021/07/10 02:22:23;;;;;;;31.75;21.65;;;15.50;99.90;;;;;;5035970;28;20100;-71
2021/07/10 02:24:49;;;;;;;36.63;24.50;;;15.50;99.90;;;;;;5035803;28;20028;-71
2021/07/10 02:27:14;;;;;;;39.20;24.33;;;15.50;99.90;;;;;;5035478;28;20025;-71
2021/07/10 02:29:40;;;;;;;42.90;25.67;;;15.50;99.90;;;;;;5036620;28;20075;-71
2021/07/10 02:32:06;;;;;;;38.08;24.98;;;15.50;99.90;;;;;;5035719;28;20378;-71
2021/07/10 02:34:31;;;;;;;44.80;26.08;;;15.40;99.90;;;;;;5034400;28;20488;-70
2021/07/10 02:36:57;;;;;;;38.42;25.00;;;15.40;99.90;;;;;;5035597;28;20056;-70
2021/07/10 02:39:22;;;;;;;42.25;25.30;;;15.40;99.90;;;;;;5035744;28;20521;-70
2021/07/10 02:41:48;;;;;;;41.13;25.02;;;15.40;99.90;;;;;;5034783;28;20369;-70
2021/07/10 02:44:14;;;;;;;39.72;23.40;;;15.40;99.90;;;;;;5035805;28;20132;-70
2021/07/10 02:46:39;;;;;;;30.23;20.38;;;15.40;99.90;;;;;;5035155;28;20025;-70
2021/07/10 02:49:05;;;;;;;38.45;17.05;;;15.40;99.90;;;;;;5033825;28;20041;-70
2021/07/10 02:51:31;;;;;;;19.15;14.73;;;15.40;99.90;;;;;;5034943;28;20025;-70
2021/07/10 02:53:57;;;;;;;14.77;11.80;;;15.30;99.90;;;;;;5033708;28;20037;-71
2021/07/10 02:56:23;;;;;;;14.20;11.80;;;15.30;99.90;;;;;;5034858;28;20029;-70
2021/07/10 02:58:50;;;;;;;20.15;13.95;;;15.30;99.90;;;;;;5034536;28;20124;-70
2021/07/10 03:01:16;;;;;;;27.35;16.05;;;15.20;99.90;;;;;;5034142;28;20048;-71
2021/07/10 03:03:41;;;;;;;26.67;16.58;;;15.20;99.90;;;;;;5034673;28;20033;-70
2021/07/10 03:06:07;;;;;;;26.73;18.38;;;15.20;99.90;;;;;;5034133;28;20025;-73
2021/07/10 03:08:32;;;;;;;37.92;21.70;;;15.20;99.90;;;;;;5033618;28;20042;-70
2021/07/10 03:10:58;;;;;;;30.48;20.15;;;15.30;99.90;;;;;;5034071;28;20029;-70
2021/07/10 03:13:24;;;;;;;34.28;21.80;;;15.20;99.90;;;;;;5020852;28;20030;-71
2021/07/10 03:15:50;;;;;;;41.55;23.48;;;15.20;99.90;;;;;;5034786;28;20029;-71
2021/07/10 03:18:15;;;;;;;41.80;24.17;;;15.20;99.90;;;;;;5035109;28;20029;-71
2021/07/10 03:20:41;;;;;;;41.40;25.80;;;15.10;99.90;;;;;;5035206;28;20052;-70
2021/07/10 03:23:07;;;;;;;41.83;24.13;;;15.20;99.90;;;;;;5033751;28;20022;-71
2021/07/10 03:25:32;;;;;;;41.38;24.23;;;15.10;99.90;;;;;;5034767;28;20059;-70
2021/07/10 03:27:58;;;;;;;39.95;24.02;;;15.20;99.90;;;;;;5035411;28;20086;-71
2021/07/10 03:30:24;;;;;;;41.60;26.05;;;15.20;99.90;;;;;;5021821;28;20089;-72
2021/07/10 03:32:50;;;;;;;42.63;25.90;;;15.10;99.90;;;;;;5037501;28;20017;-69
2021/07/10 03:35:17;;;;;;;50.13;27.05;;;15.20;99.90;;;;;;5035616;28;20036;-71
2021/07/10 03:37:43;;;;;;;50.28;27.90;;;15.10;99.90;;;;;;5033630;28;20136;-72
2021/07/10 03:40:11;;;;;;;53.78;29.92;;;15.20;99.90;;;;;;5035024;28;20112;-71
2021/07/10 03:42:38;;;;;;;48.88;28.73;;;15.20;99.90;;;;;;5034526;28;20156;-71
2021/07/10 03:45:06;;;;;;;48.58;28.58;;;15.30;99.90;;;;;;5033681;28;20029;-71
2021/07/10 03:47:32;;;;;;;47.75;28.38;;;15.30;99.90;;;;;;5020697;28;20108;-70
2021/07/10 03:49:58;;;;;;;49.47;29.45;;;15.40;99.90;;;;;;5032862;28;20172;-71
2021/07/10 03:52:24;;;;;;;51.08;30.63;;;15.30;99.90;;;;;;5033803;28;20495;-71
2021/07/10 03:54:50;;;;;;;47.45;30.35;;;15.40;99.90;;;;;;5034099;28;20029;-71
2021/07/10 03:57:18;;;;;;;49.67;29.92;;;15.50;99.90;;;;;;5032619;28;20072;-70
2021/07/10 03:59:44;;;;;;;48.67;29.60;;;15.50;99.90;;;;;;5033806;28;20354;-71
2021/07/10 04:02:09;;;;;;;50.47;28.67;;;15.60;99.90;;;;;;5034202;28;20022;-70
2021/07/10 04:04:35;;;;;;;49.65;28.00;;;15.70;99.90;;;;;;5033614;28;20439;-70
2021/07/10 04:07:01;;;;;;;46.13;26.67;;;15.70;99.90;;;;;;5034083;28;20022;-70
2021/07/10 04:09:26;;;;;;;47.05;27.90;;;15.70;99.90;;;;;;5033912;28;20095;-72
2021/07/10 04:11:52;;;;;;;43.55;26.63;;;15.70;99.90;;;;;;5033145;28;20021;-71
2021/07/10 04:14:18;;;;;;;48.13;27.63;;;15.80;99.90;;;;;;5033880;28;20021;-71
2021/07/10 04:16:44;;;;;;;47.38;25.05;;;15.80;99.90;;;;;;5033738;28;20041;-70
2021/07/10 04:19:09;;;;;;;51.30;28.20;;;15.80;99.90;;;;;;5031793;28;20026;-70
2021/07/10 04:21:35;;;;;;;48.20;27.55;;;15.80;99.90;;;;;;5033652;28;20021;-70
2021/07/10 04:24:01;;;;;;;44.08;26.75;;;15.90;99.90;;;;;;5033870;28;20115;-71
2021/07/10 04:26:26;;;;;;;50.38;28.00;;;15.90;99.90;;;;;;5033403;28;20025;-72
2021/07/10 04:28:52;;;;;;;47.15;27.92;;;16.00;99.90;;;;;;5033135;28;20496;-72
2021/07/10 04:31:17;;;;;;;48.20;27.50;;;15.90;99.90;;;;;;5033731;28;20032;-71
2021/07/10 04:33:43;;;;;;;50.22;27.85;;;16.00;99.90;;;;;;5032909;28;20022;-71
2021/07/10 04:36:09;;;;;;;49.53;28.77;;;16.10;99.90;;;;;;5033440;28;20033;-71
2021/07/10 04:38:37;;;;;;;43.97;27.17;;;16.10;99.90;;;;;;5033873;28;20113;-71
2021/07/10 04:41:04;;;;;;;46.03;25.73;;;16.20;99.90;;;;;;5032622;28;20040;-71
2021/07/10 04:43:30;;;;;;;44.10;27.02;;;16.20;99.90;;;;;;5032806;28;20025;-70
2021/07/10 04:45:56;;;;;;;40.58;26.27;;;16.20;99.90;;;;;;5033432;28;20092;-70
2021/07/10 04:48:22;;;;;;;50.08;27.45;;;16.30;99.90;;;;;;5032746;28;20553;-71
2021/07/10 04:50:47;;;;;;;48.47;28.63;;;16.30;99.90;;;;;;5033014;28;20021;-71
2021/07/10 04:53:13;;;;;;;49.33;30.48;;;16.50;99.90;;;;;;5033471;28;20025;-71
2021/07/10 04:55:39;;;;;;;47.95;28.40;;;16.60;99.90;;;;;;5032466;28;20405;-72
2021/07/10 04:58:04;;;;;;;47.17;29.73;;;16.70;99.90;;;;;;5033016;28;20013;-71
2021/07/10 05:00:30;;;;;;;49.22;28.45;;;16.90;99.90;;;;;;5032066;28;20054;-71
2021/07/10 05:02:55;;;;;;;44.67;27.42;;;17.00;99.90;;;;;;5032624;28;20044;-71
2021/07/10 05:05:21;;;;;;;57.05;30.60;;;17.20;99.90;;;;;;5033047;28;20021;-71
2021/07/10 05:07:47;;;;;;;50.30;29.98;;;17.20;99.90;;;;;;5031976;28;20029;-71
2021/07/10 05:10:12;;;;;;;52.38;29.27;;;17.20;99.90;;;;;;5032998;28;20037;-71
2021/07/10 05:12:38;;;;;;;48.92;29.30;;;17.40;99.90;;;;;;5032856;28;20469;-72
2021/07/10 05:15:04;;;;;;;49.08;28.55;;;17.40;99.90;;;;;;5030276;28;20021;-71
2021/07/10 05:17:30;;;;;;;46.53;27.38;;;17.60;99.90;;;;;;5018470;28;20022;-71
2021/07/10 05:19:55;;;;;;;46.92;27.25;;;17.70;99.90;;;;;;5011869;28;20488;-71
2021/07/10 05:22:21;;;;;;;42.53;26.25;;;17.80;99.90;;;;;;5012440;28;20033;-70
2021/07/10 05:24:47;;;;;;;50.80;28.63;;;17.90;99.90;;;;;;5015114;28;20061;-72
2021/07/10 05:27:12;;;;;;;44.58;27.58;;;17.90;99.90;;;;;;5017626;28;20034;-71
2021/07/10 05:29:38;;;;;;;45.05;27.20;;;18.00;99.90;;;;;;5013301;28;20044;-71
2021/07/10 05:32:04;;;;;;;36.65;23.77;;;18.00;99.90;;;;;;5013762;28;20105;-72
2021/07/10 05:34:30;;;;;;;39.95;25.00;;;18.10;99.90;;;;;;5014195;28;20465;-72
2021/07/10 05:36:56;;;;;;;42.95;26.65;;;18.10;99.90;;;;;;5012819;28;20037;-72
2021/07/10 05:39:21;;;;;;;39.08;23.48;;;18.20;99.90;;;;;;5012453;28;20021;-70
2021/07/10 05:41:47;;;;;;;33.92;23.73;;;18.30;99.90;;;;;;5015074;28;20029;-71
2021/07/10 05:44:13;;;;;;;45.67;24.83;;;18.20;99.90;;;;;;5013429;28;20029;-71
2021/07/10 05:46:38;;;;;;;31.40;21.02;;;18.30;99.90;;;;;;5012867;28;20022;-71
2021/07/10 05:49:04;;;;;;;31.48;20.48;;;18.30;99.90;;;;;;5012198;28;20504;-71
2021/07/10 05:51:30;;;;;;;35.63;22.10;;;18.30;99.90;;;;;;5017259;28;20109;-72
2021/07/10 05:53:56;;;;;;;32.67;22.00;;;18.40;99.90;;;;;;5022885;28;20083;-71
2021/07/10 05:56:21;;;;;;;34.65;20.67;;;18.40;99.90;;;;;;5031852;28;20393;-72
2021/07/10 05:58:47;;;;;;;30.63;19.40;;;18.40;99.90;;;;;;5032340;28;20052;-72
2021/07/10 06:01:13;;;;;;;28.85;19.33;;;18.50;99.90;;;;;;5032273;28;20017;-73
2021/07/10 06:03:39;;;;;;;31.63;20.52;;;18.50;99.90;;;;;;5031837;28;20104;-72
2021/07/10 06:06:04;;;;;;;30.45;20.60;;;18.50;99.90;;;;;;5030862;28;20093;-71
2021/07/10 06:08:30;;;;;;;33.13;21.33;;;18.50;99.90;;;;;;5031746;28;20046;-71
2021/07/10 06:10:55;;;;;;;34.55;21.55;;;18.50;99.90;;;;;;5030386;28;20022;-72
2021/07/10 06:13:21;;;;;;;35.60;21.42;;;18.40;99.90;;;;;;5031244;28;20529;-71
2021/07/10 06:15:47;;;;;;;29.98;19.50;;;18.40;99.90;;;;;;5031172;28;20036;-71
2021/07/10 06:18:12;;;;;;;34.00;20.92;;;18.50;99.90;;;;;;5030810;28;20025;-71
2021/07/10 06:20:39;;;;;;;29.65;17.55;;;18.50;99.90;;;;;;5028999;28;20021;-71
2021/07/10 06:23:05;;;;;;;32.38;18.98;;;18.60;99.90;;;;;;5031019;28;20043;-71
2021/07/10 06:25:32;;;;;;;32.42;20.60;;;18.70;99.90;;;;;;5030705;28;20022;-72
2021/07/10 06:28:00;;;;;;;34.22;21.38;;;18.80;99.90;;;;;;5030883;28;20037;-71
2021/07/10 06:30:25;;;;;;;35.80;20.55;;;18.80;99.90;;;;;;5027335;28;20048;-71
2021/07/10 06:32:51;;;;;;;30.25;19.50;;;18.90;99.90;;;;;;5029913;28;20021;-71
2021/07/10 06:35:16;;;;;;;31.05;19.70;;;18.90;99.90;;;;;;5031509;28;20457;-72
2021/07/10 06:37:42;;;;;;;25.30;18.55;;;19.00;99.90;;;;;;5031304;28;20024;-70
2021/07/10 06:40:10;;;;;;;25.38;18.75;;;19.40;99.90;;;;;;5030445;28;20014;-71
2021/07/10 06:42:37;;;;;;;29.73;18.17;;;19.20;99.90;;;;;;5031029;28;20029;-71
2021/07/10 06:45:05;;;;;;;28.58;19.17;;;19.40;99.90;;;;;;5030095;28;20517;-70
2021/07/10 06:47:31;;;;;;;29.88;18.70;;;19.40;99.90;;;;;;5028108;28;20029;-70
2021/07/10 06:49:57;;;;;;;29.48;19.75;;;19.50;99.90;;;;;;5030224;28;20180;-71
2021/07/10 06:52:23;;;;;;;24.70;18.02;;;19.60;99.90;;;;;;5030585;28;20025;-71
2021/07/10 06:54:49;;;;;;;28.08;18.92;;;19.70;99.90;;;;;;5029611;28;20437;-71
2021/07/10 06:57:14;;;;;;;25.23;17.58;;;19.70;99.90;;;;;;5030765;28;20025;-72
2021/07/10 06:59:40;;;;;;;27.60;20.20;;;19.70;99.90;;;;;;5029924;28;20056;-71
2021/07/10 07:02:06;;;;;;;29.35;18.75;;;19.70;99.90;;;;;;5029665;28;20033;-71
2021/07/10 07:04:32;;;;;;;26.67;19.63;;;19.70;99.90;;;;;;5028910;28;20077;-70
2021/07/10 07:06:57;;;;;;;28.67;20.25;;;19.70;99.90;;;;;;5032065;28;20071;-71
2021/07/10 07:09:23;;;;;;;29.05;21.23;;;19.80;99.90;;;;;;5033433;28;20033;-72
2021/07/10 07:11:51;;;;;;;34.70;22.48;;;19.80;99.90;;;;;;5034199;28;20025;-70
2021/07/10 07:14:16;;;;;;;27.63;20.50;;;19.70;99.90;;;;;;5034689;28;20071;-72
2021/07/10 07:16:42;;;;;;;33.00;21.60;;;19.70;99.90;;;;;;5034852;28;20021;-71
2021/07/10 07:19:07;;;;;;;34.00;21.33;;;19.70;99.90;;;;;;5025177;28;20089;-72
2021/07/10 07:21:33;;;;;;;26.00;20.25;;;19.70;99.90;;;;;;5032257;28;20483;-73
2021/07/10 07:23:58;;;;;;;28.45;21.05;;;19.80;99.90;;;;;;5034764;28;20036;-70
2021/07/10 07:26:24;;;;;;;34.55;23.25;;;19.90;99.90;;;;;;5034908;28;20032;-72
2021/07/10 07:28:53;;;;;;;32.42;21.15;;;20.00;99.90;;;;;;5033691;28;20077;-71
2021/07/10 07:31:18;;;;;;;34.75;21.10;;;20.10;99.90;;;;;;5034502;28;20075;-71
2021/07/10 07:33:44;;;;;;;31.52;20.35;;;20.20;99.90;;;;;;5016927;28;20108;-72
2021/07/10 07:36:09;;;;;;;33.30;22.08;;;20.30;99.90;;;;;;5034032;28;20113;-71
2021/07/10 07:38:36;;;;;;;34.50;21.70;;;20.30;99.90;;;;;;5034569;28;20473;-71
2021/07/10 07:41:03;;;;;;;32.72;22.65;;;20.50;99.90;;;;;;5034458;28;20029;-73
2021/07/10 07:43:29;;;;;;;32.45;22.52;;;20.60;99.90;;;;;;5033499;28;20022;-74
2021/07/10 07:45:54;;;;;;;31.00;21.65;;;20.70;99.90;;;;;;5034252;28;20084;-71
2021/07/10 07:48:20;;;;;;;31.40;21.67;;;20.80;99.90;;;;;;5021597;28;20088;-70
2021/07/10 07:50:49;;;;;;;30.75;23.02;;;20.90;99.90;;;;;;5016464;28;20116;-70
2021/07/10 07:53:16;;;;;;;31.85;22.02;;;21.00;99.90;;;;;;5025970;28;20418;-68
2021/07/10 07:55:43;;;;;;;32.88;22.45;;;21.10;99.90;;;;;;5024421;28;20400;-72
2021/07/10 07:58:09;;;;;;;31.10;23.05;;;21.00;99.90;;;;;;5032823;28;20025;-72
2021/07/10 08:00:35;;;;;;;35.45;22.40;;;21.00;99.90;;;;;;5033456;28;20523;-71
2021/07/10 08:03:00;;;;;;;29.95;21.63;;;21.10;99.90;;;;;;5030985;28;20052;-71
2021/07/10 08:05:26;;;;;;;37.30;24.70;;;21.00;99.90;;;;;;5033405;28;20053;-71
2021/07/10 08:07:52;;;;;;;33.65;22.58;;;20.90;99.90;;;;;;5033660;28;20018;-73
2021/07/10 08:10:20;;;;;;;33.05;22.92;;;21.00;99.90;;;;;;5034110;28;20068;-72
2021/07/10 08:12:49;;;;;;;32.58;22.65;;;20.90;99.90;;;;;;5032756;28;20017;-72
2021/07/10 08:15:16;;;;;;;33.00;24.27;;;20.90;99.90;;;;;;5025317;28;20029;-72
2021/07/10 08:17:43;;;;;;;30.40;22.45;;;20.90;99.90;;;;;;5032527;28;20021;-73
2021/07/10 08:20:10;;;;;;;33.13;21.75;;;21.00;99.90;;;;;;5033651;28;20615;-73
2021/07/10 08:22:36;;;;;;;35.20;25.13;;;21.00;99.90;;;;;;5034047;28;20496;-74
2021/07/10 08:25:04;;;;;;;37.53;26.52;;;21.00;99.90;;;;;;5033083;28;20025;-75
2021/07/10 08:27:32;;;;;;;34.13;24.65;;;21.10;99.90;;;;;;5033654;28;20156;-73
2021/07/10 08:29:57;;;;;;;34.60;25.40;;;21.20;99.90;;;;;;5033518;28;20033;-73
2021/07/10 08:32:23;;;;;;;41.92;28.85;;;21.40;99.90;;;;;;5033843;28;20381;-74
2021/07/10 08:34:50;;;;;;;42.63;29.25;;;21.50;99.90;;;;;;5034453;28;20100;-74
2021/07/10 08:37:18;;;;;;;46.38;30.13;;;21.70;99.90;;;;;;5033562;28;20388;-73
2021/07/10 08:39:43;;;;;;;41.30;28.48;;;21.70;99.90;;;;;;5032193;28;20071;-75
2021/07/10 08:42:09;;;;;;;48.53;29.00;;;21.90;99.90;;;;;;5033133;28;20026;-75
2021/07/10 08:44:42;;;;;;;43.00;27.98;;;22.00;99.90;;;;;;5033403;28;20029;-73
2021/07/10 08:47:13;;;;;;;44.75;27.35;;;22.10;99.90;;;;;;5033938;28;20036;-74
2021/07/10 08:49:40;;;;;;;42.17;27.95;;;22.20;99.90;;;;;;5033705;28;20120;-75
2021/07/10 08:52:06;;;;;;;39.47;27.02;;;22.30;99.90;;;;;;5032970;28;20030;-73
2021/07/10 08:54:32;;;;;;;36.45;24.65;;;22.40;99.90;;;;;;5032576;28;20037;-75
2021/07/10 08:56:57;;;;;;;36.78;25.83;;;22.40;99.90;;;;;;5031040;28;20025;-70
2021/07/10 08:59:23;;;;;;;38.03;27.95;;;22.60;99.90;;;;;;5032597;28;20036;-74
2021/07/10 09:01:53;;;;;;;37.88;25.45;;;22.60;99.90;;;;;;5032536;28;20022;-72
2021/07/10 09:04:20;;;;;;;35.53;24.38;;;22.70;99.90;;;;;;5033060;28;20068;-73
2021/07/10 09:06:45;;;;;;;37.60;25.75;;;22.80;99.90;;;;;;5024399;28;20057;-75
2021/07/10 09:09:11;;;;;;;33.15;23.58;;;22.90;99.90;;;;;;5032310;28;20077;-73
2021/07/10 09:11:38;;;;;;;38.63;26.52;;;23.00;99.90;;;;;;5032922;28;20021;-74
2021/07/10 09:14:04;;;;;;;34.05;24.42;;;23.10;99.90;;;;;;5031361;28;20079;-72
2021/07/10 09:16:35;;;;;;;30.02;24.17;;;23.10;99.90;;;;;;5030951;28;20021;-71
2021/07/10 09:19:08;;;;;;;31.23;23.02;;;23.10;99.90;;;;;;5030436;28;20029;-73
2021/07/10 09:21:37;;;;;;;35.80;24.17;;;23.10;99.90;;;;;;5029331;28;20048;-72
2021/07/10 09:24:05;;;;;;;28.10;21.27;;;23.10;99.90;;;;;;5032310;28;20021;-72
2021/07/10 09:26:31;;;;;;;30.77;21.27;;;23.10;99.90;;;;;;5032423;28;20046;-73
2021/07/10 09:29:10;;;;;;;30.10;20.52;;;23.10;99.90;;;;;;5031206;28;20037;-73
2021/07/10 09:31:39;;;;;;;27.17;19.73;;;23.20;99.90;;;;;;5032184;28;20187;-73
2021/07/10 09:34:17;;;;;;;28.58;20.60;;;23.30;99.90;;;;;;5032249;28;20024;-72
2021/07/10 09:37:11;;;;;;;32.58;23.30;;;23.40;99.90;;;;;;5029332;28;20104;-72
2021/07/10 09:39:43;;;;;;;30.77;21.77;;;23.50;99.90;;;;;;5028954;28;20034;-72
2021/07/10 09:42:15;;;;;;;29.50;20.77;;;23.60;99.90;;;;;;5026062;28;20535;-71
2021/07/10 09:44:48;;;;;;;24.02;18.05;;;23.70;99.90;;;;;;5031959;28;20018;-71
2021/07/10 09:47:15;;;;;;;31.15;18.92;;;23.80;99.90;;;;;;5032142;28;20033;-71
2021/07/10 09:49:45;;;;;;;29.23;19.30;;;23.90;99.90;;;;;;5031229;28;20033;-70
2021/07/10 09:52:10;;;;;;;26.55;19.95;;;24.00;99.90;;;;;;5031437;28;20354;-70
2021/07/10 09:54:50;;;;;;;25.45;18.70;;;24.00;99.90;;;;;;5026563;28;20032;-71
2021/07/10 09:57:19;;;;;;;24.73;19.05;;;24.10;99.90;;;;;;5029111;28;20032;-72
2021/07/10 09:59:49;;;;;;;27.15;19.67;;;24.10;99.90;;;;;;5028863;28;20037;-71
2021/07/10 10:02:41;;;;;;;24.17;19.33;;;24.30;99.90;;;;;;5029036;28;20416;-71
2021/07/10 10:05:10;;;;;;;23.92;18.77;;;24.40;99.90;;;;;;5032988;28;20021;-72
2021/07/10 10:07:45;;;;;;;27.38;18.42;;;24.40;99.90;;;;;;5036393;28;20029;-71
2021/07/10 10:10:33;;;;;;;23.27;17.52;;;24.40;99.80;;;;;;5031912;28;20408;-71
2021/07/10 10:13:04;;;;;;;24.08;17.30;;;24.30;99.90;;;;;;5037165;28;20018;-73
2021/07/10 10:15:31;;;;;;;19.38;15.88;;;24.30;99.90;;;;;;5040761;28;20030;-71
2021/07/10 10:17:56;;;;;;;24.95;18.17;;;24.30;99.90;;;;;;5042004;28;20094;-71
2021/07/10 10:20:22;;;;;;;28.05;19.83;;;24.40;99.90;;;;;;5043009;28;20060;-71
2021/07/10 10:22:49;;;;;;;25.75;18.42;;;24.40;99.40;;;;;;5048101;28;20028;-72
2021/07/10 10:25:16;;;;;;;23.73;16.42;;;24.30;99.10;;;;;;5046595;28;20032;-72
2021/07/10 10:27:45;;;;;;;20.67;17.15;;;24.20;99.50;;;;;;5040150;28;20057;-72
2021/07/10 10:30:11;;;;;;;23.20;17.98;;;24.30;99.90;;;;;;5038809;28;20068;-72
2021/07/10 10:32:37;;;;;;;26.60;18.92;;;24.40;99.70;;;;;;5041992;28;20020;-72
2021/07/10 10:35:03;;;;;;;26.55;18.52;;;24.50;99.60;;;;;;5034630;28;20576;-72
2021/07/10 10:37:29;;;;;;;28.88;19.58;;;24.70;99.60;;;;;;5043691;28;20065;-71
2021/07/10 10:39:55;;;;;;;25.40;18.92;;;24.70;98.90;;;;;;5044885;28;20111;-72
2021/07/10 10:42:23;;;;;;;25.70;19.75;;;24.80;98.90;;;;;;5048755;28;20444;-71
2021/07/10 10:44:54;;;;;;;22.00;19.35;;;24.80;98.60;;;;;;5051145;28;20036;-71
2021/07/10 10:47:23;;;;;;;25.90;19.05;;;24.80;98.60;;;;;;5051525;28;20021;-71
2021/07/10 10:49:54;;;;;;;25.23;19.83;;;24.80;99.20;;;;;;5052936;28;20202;-71
2021/07/10 10:52:56;;;;;;;21.60;16.83;;;24.90;98.90;;;;;;5047191;28;20152;-73
2021/07/10 10:55:20;;;;;;;17.65;15.35;;;24.90;98.40;;;;;;5046185;28;20626;-73
2021/07/10 10:57:50;;;;;;;24.92;16.90;;;24.90;97.80;;;;;;5050494;28;20032;-72
2021/07/10 11:00:36;;;;;;;21.95;17.13;;;24.90;97.60;;;;;;5050185;28;20114;-71
2021/07/10 11:03:06;;;;;;;21.92;16.95;;;25.00;97.20;;;;;;5046874;28;20534;-71
2021/07/10 11:05:33;;;;;;;30.95;18.42;;;25.00;96.70;;;;;;5050151;28;20036;-71
2021/07/10 11:08:17;;;;;;;23.75;17.92;;;25.00;97.10;;;;;;5048588;28;20032;-71
2021/07/10 11:10:46;;;;;;;21.75;16.30;;;25.10;97.10;;;;;;5046834;28;20109;-72
2021/07/10 11:13:35;;;;;;;24.23;18.40;;;25.20;97.20;;;;;;5047874;28;20033;-71
2021/07/10 11:16:11;;;;;;;26.63;18.30;;;25.20;96.40;;;;;;5048314;28;20029;-72
2021/07/10 11:18:56;;;;;;;26.17;18.75;;;25.30;96.70;;;;;;5049349;28;20025;-70
2021/07/10 11:21:41;;;;;;;25.52;18.00;;;25.20;96.70;;;;;;5041573;28;20025;-71
2021/07/10 11:26:56;;;;;;;21.67;17.92;;;25.20;97.00;;;;;;5043581;28;20369;-72
2021/07/10 11:29:34;;;;;;;24.15;18.70;;;25.20;96.70;;;;;;5049241;28;20120;-71
2021/07/10 11:32:12;;;;;;;24.63;18.23;;;25.20;96.40;;;;;;5046263;28;20017;-72
2021/07/10 11:34:48;;;;;;;27.30;19.38;;;25.20;96.70;;;;;;5047645;28;20116;-71
2021/07/10 11:37:24;;;;;;;20.85;17.08;;;25.20;96.30;;;;;;5041895;28;20029;-72
2021/07/10 11:39:55;;;;;;;25.10;19.33;;;25.10;96.30;;;;;;5047583;28;20078;-72
2021/07/10 11:42:26;;;;;;;20.42;17.88;;;25.00;96.30;;;;;;5047598;28;20069;-70
2021/07/10 11:45:05;;;;;;;24.80;21.20;;;24.90;96.40;;;;;;5052504;28;20037;-71
2021/07/10 11:47:37;;;;;;;24.17;18.55;;;24.90;95.80;;;;;;5046744;28;20379;-71
2021/07/10 11:50:28;;;;;;;26.27;18.80;;;24.80;96.70;;;;;;5041139;28;20434;-71
2021/07/10 11:53:11;;;;;;;21.13;17.40;;;25.00;97.10;;;;;;5046461;28;20090;-72
2021/07/10 11:55:43;;;;;;;24.83;16.50;;;25.40;96.60;;;;;;5048820;28;20485;-73
2021/07/10 11:58:14;;;;;;;20.75;15.20;;;25.60;95.00;;;;;;5050178;28;20039;-71
2021/07/10 12:00:40;;;;;;;23.52;17.40;;;26.00;94.80;;;;;;5048320;28;20500;-71
2021/07/10 12:03:15;;;;;;;19.30;14.88;;;26.10;94.40;;;;;;5050580;28;20037;-71
2021/07/10 12:05:41;;;;;;;19.17;16.48;;;26.10;93.40;;;;;;5049101;28;20051;-70
2021/07/10 12:08:07;;;;;;;22.67;18.02;;;26.00;93.50;;;;;;5044778;28;20116;-72
2021/07/10 12:10:41;;;;;;;25.75;18.63;;;25.90;94.10;;;;;;5038509;28;20037;-72
2021/07/10 12:13:16;;;;;;;22.95;17.63;;;25.90;94.40;;;;;;5038149;28;20041;-72
2021/07/10 12:15:49;;;;;;;21.45;17.08;;;26.00;94.70;;;;;;5042900;28;20362;-73
2021/07/10 12:18:16;;;;;;;24.08;18.40;;;26.20;94.50;;;;;;5043543;28;20092;-72
2021/07/10 12:20:50;;;;;;;18.77;15.48;;;26.40;94.10;;;;;;5029565;28;20470;-70
2021/07/10 12:23:19;;;;;;;23.77;18.63;;;26.50;94.00;;;;;;5021584;28;20076;-73
2021/07/10 12:25:56;;;;;;;20.05;16.08;;;26.60;93.40;;;;;;5030273;28;20025;-72
2021/07/10 12:28:33;;;;;;;23.25;19.77;;;26.70;93.20;;;;;;5032749;28;20025;-70
2021/07/10 12:31:01;;;;;;;20.02;17.05;;;26.50;92.40;;;;;;5032905;28;20120;-71
2021/07/10 12:33:29;;;;;;;22.63;16.38;;;26.20;92.20;;;;;;5033375;28;20021;-71